createdAt,value
2022-11-18T00:01:47.320Z,97897.00
2022-11-18T00:04:15.163Z,97895.56
2022-11-18T00:06:42.929Z,97894.75
2022-11-18T00:09:10.645Z,97900.19
2022-11-18T00:11:56.862Z,97903.66
2022-11-18T00:14:27.496Z,97902.88
2022-11-18T00:16:56.874Z,97904.13
2022-11-18T00:19:27.319Z,97899.03
2022-11-18T00:21:55.993Z,97912.03
2022-11-18T00:24:24.158Z,97904.31
2022-11-18T00:26:53.507Z,97909.19
2022-11-18T00:29:21.802Z,97896.41
2022-11-18T00:31:49.869Z,97898.44
2022-11-18T00:34:19.182Z,97897.84
2022-11-18T00:36:47.732Z,97900.28
2022-11-18T00:39:17.304Z,97914.88
2022-11-18T00:42:02.979Z,97914.06
2022-11-18T00:44:32.172Z,97917.94
2022-11-18T00:46:59.922Z,97920.97
2022-11-18T00:49:27.632Z,97922.41
2022-11-18T00:51:55.455Z,97910.03
2022-11-18T00:54:23.502Z,97918.34
2022-11-18T00:56:51.143Z,97907.81
2022-11-18T00:59:19.024Z,97914.47
2022-11-18T01:01:49.097Z,97920.75
2022-11-18T01:04:17.105Z,97927.47
2022-11-18T01:06:45.004Z,97928.09
2022-11-18T01:09:12.716Z,97929.09
2022-11-18T01:11:57.904Z,97928.25
2022-11-18T01:14:25.875Z,97925.44
2022-11-18T01:16:56.513Z,97924.63
2022-11-18T01:19:24.731Z,97931.72
2022-11-18T01:21:52.754Z,97937.63
2022-11-18T01:24:20.405Z,97943.09
2022-11-18T01:26:48.336Z,97941.06
2022-11-18T01:29:17.262Z,97945.31
2022-11-18T01:32:08.844Z,97946.94
2022-11-18T01:34:34.233Z,97943.50
2022-11-18T01:37:01.861Z,97939.25
2022-11-18T01:39:29.728Z,97944.72
2022-11-18T01:41:57.411Z,97946.75
2022-11-18T01:45:10.275Z,97948.59
2022-11-18T01:47:43.292Z,97948.38
2022-11-18T01:50:14.366Z,97954.44
2022-11-18T01:52:46.236Z,97952.84
2022-11-18T01:55:20.366Z,97953.63
2022-11-18T01:57:50.998Z,97953.06
2022-11-18T02:00:18.916Z,97951.41
2022-11-18T02:02:47.161Z,97955.06
2022-11-18T02:05:17.696Z,97957.09
2022-11-18T02:07:45.493Z,97947.53
2022-11-18T02:10:21.195Z,97944.88
2022-11-18T02:12:49.919Z,97948.53
2022-11-18T02:15:18.608Z,97949.16
2022-11-18T02:17:57.201Z,97951.78
2022-11-18T02:20:38.361Z,97949.16
2022-11-18T02:23:33.040Z,97954.25
2022-11-18T02:26:27.361Z,97956.69
2022-11-18T02:29:04.058Z,97955.88
2022-11-18T02:31:36.419Z,97955.88
2022-11-18T02:34:14.487Z,97959.53
2022-11-18T02:36:47.975Z,97962.78
2022-11-18T02:39:22.843Z,97966.84
2022-11-18T02:41:55.199Z,97967.66
2022-11-18T02:44:27.366Z,97976.00
2022-11-18T02:46:59.333Z,97969.47
2022-11-18T02:49:39.909Z,97974.16
2022-11-18T02:52:11.322Z,97971.53
2022-11-18T02:54:42.702Z,97982.03
2022-11-18T02:57:10.951Z,97979.81
2022-11-18T02:59:40.446Z,97977.19
2022-11-18T03:02:08.110Z,97983.84
2022-11-18T03:04:36.642Z,97982.84
2022-11-18T03:07:12.232Z,97983.84
2022-11-18T03:09:43.470Z,97985.09
2022-11-18T03:12:17.266Z,97986.50
2022-11-18T03:14:56.308Z,97990.19
2022-11-18T03:17:32.439Z,97986.72
2022-11-18T03:20:11.679Z,97988.56
2022-11-18T03:22:45.718Z,97995.25
2022-11-18T03:25:21.096Z,97997.28
2022-11-18T03:27:55.134Z,97995.66
2022-11-18T03:30:26.178Z,97992.41
2022-11-18T03:32:59.468Z,98000.94
2022-11-18T03:35:30.342Z,98004.56
2022-11-18T03:38:09.478Z,98009.84
2022-11-18T03:40:40.496Z,98006.56
2022-11-18T03:43:14.186Z,98012.25
2022-11-18T03:45:48.552Z,98009.59
2022-11-18T03:48:18.339Z,98017.59
2022-11-18T03:50:50.119Z,98014.72
2022-11-18T03:53:20.620Z,98019.41
2022-11-18T03:55:52.284Z,98035.25
2022-11-18T03:58:25.300Z,98034.84
2022-11-18T04:01:02.695Z,98033.44
2022-11-18T04:03:30.343Z,98043.38
2022-11-18T04:06:05.189Z,98052.13
2022-11-18T04:08:39.181Z,98050.91
2022-11-18T04:11:33.990Z,98058.63
2022-11-18T04:14:03.686Z,98059.84
2022-11-18T04:16:39.042Z,98059.41
2022-11-18T04:19:06.750Z,98067.34
2022-11-18T04:21:34.366Z,98068.78
2022-11-18T04:24:02.314Z,98074.88
2022-11-18T04:26:31.443Z,98073.84
2022-11-18T04:28:59.100Z,98082.16
2022-11-18T04:31:26.691Z,98088.22
2022-11-18T04:33:55.673Z,98088.63
2022-11-18T04:36:23.390Z,98085.78
2022-11-18T04:38:50.996Z,98084.34
2022-11-18T04:41:18.589Z,98086.56
2022-11-18T04:43:46.203Z,98084.13
2022-11-18T04:46:13.851Z,98078.44
2022-11-18T04:48:41.545Z,98080.47
2022-11-18T04:51:10.582Z,98073.97
2022-11-18T04:53:38.224Z,98087.72
2022-11-18T04:56:08.819Z,98078.78
2022-11-18T04:58:36.632Z,98077.78
2022-11-18T05:01:04.328Z,98085.06
2022-11-18T05:03:32.014Z,98087.31
2022-11-18T05:06:02.704Z,98088.88
2022-11-18T05:08:32.605Z,98085.41
2022-11-18T05:11:20.635Z,98080.28
2022-11-18T05:13:47.227Z,98094.09
2022-11-18T05:16:14.886Z,98094.06
2022-11-18T05:18:42.614Z,98104.59
2022-11-18T05:21:10.359Z,98110.06
2022-11-18T05:23:39.299Z,98115.56
2022-11-18T05:26:08.071Z,98115.72
2022-11-18T05:28:37.086Z,98120.53
2022-11-18T05:31:08.390Z,98129.66
2022-11-18T05:33:35.995Z,98129.47
2022-11-18T05:36:05.002Z,98140.84
2022-11-18T05:38:33.377Z,98141.78
2022-11-18T05:41:03.136Z,98147.06
2022-11-18T05:43:30.343Z,98155.16
2022-11-18T05:45:58.677Z,98155.56
2022-11-18T05:48:26.533Z,98161.66
2022-11-18T05:50:55.340Z,98163.25
2022-11-18T05:53:25.313Z,98165.50
2022-11-18T05:55:57.989Z,98163.88
2022-11-18T05:58:27.225Z,98166.28
2022-11-18T06:00:57.716Z,98175.38
2022-11-18T06:03:30.899Z,98178.19
2022-11-18T06:06:02.647Z,98181.81
2022-11-18T06:08:35.284Z,98180.81
2022-11-18T06:11:03.279Z,98187.53
2022-11-18T06:13:37.903Z,98189.81
2022-11-18T06:16:06.056Z,98186.84
2022-11-18T06:18:35.888Z,98190.31
2022-11-18T06:21:06.533Z,98195.81
2022-11-18T06:23:38.014Z,98202.22
2022-11-18T06:26:06.224Z,98203.72
2022-11-18T06:28:35.394Z,98210.56
2022-11-18T06:31:03.067Z,98208.63
2022-11-18T06:33:30.775Z,98216.22
2022-11-18T06:35:58.376Z,98218.72
2022-11-18T06:38:26.369Z,98223.94
2022-11-18T06:40:54.078Z,98218.53
2022-11-18T06:43:41.561Z,98226.38
2022-11-18T06:46:30.409Z,98229.63
2022-11-18T06:48:58.082Z,98237.53
2022-11-18T06:51:26.500Z,98234.03
2022-11-18T06:53:54.157Z,98250.34
2022-11-18T06:56:23.381Z,98254.97
2022-11-18T06:58:54.195Z,98258.84
2022-11-18T07:01:25.025Z,98261.13
2022-11-18T07:03:53.428Z,98266.16
2022-11-18T07:06:23.279Z,98268.78
2022-11-18T07:08:51.516Z,98274.91
2022-11-18T07:11:21.169Z,98270.91
2022-11-18T07:13:49.302Z,98275.94
2022-11-18T07:16:19.038Z,98280.00
2022-11-18T07:18:49.484Z,98284.31
2022-11-18T07:21:19.074Z,98291.13
2022-11-18T07:23:47.038Z,98288.03
2022-11-18T07:26:15.527Z,98298.97
2022-11-18T07:28:43.700Z,98302.72
2022-11-18T07:31:13.183Z,98301.59
2022-11-18T07:33:42.470Z,98312.06
2022-11-18T07:36:13.988Z,98313.56
2022-11-18T07:38:42.181Z,98316.44
2022-11-18T07:41:11.999Z,98323.59
2022-11-18T07:43:40.141Z,98326.50
2022-11-18T07:46:16.641Z,98333.38
2022-11-18T07:48:45.728Z,98339.22
2022-11-18T07:51:15.676Z,98344.06
2022-11-18T07:53:44.340Z,98340.03
2022-11-18T07:56:13.726Z,98343.22
2022-11-18T07:58:42.071Z,98348.88
2022-11-18T08:01:11.667Z,98358.53
2022-11-18T08:03:40.440Z,98364.72
2022-11-18T08:06:09.841Z,98364.84
2022-11-18T08:08:39.148Z,98367.38
2022-11-18T08:11:09.144Z,98375.75
2022-11-18T08:13:37.239Z,98373.00
2022-11-18T08:16:06.124Z,98382.59
2022-11-18T08:18:34.005Z,98383.19
2022-11-18T08:21:04.772Z,98387.09
2022-11-18T08:23:37.430Z,98389.44
2022-11-18T08:26:11.368Z,98396.03
2022-11-18T08:28:39.470Z,98382.25
2022-11-18T08:31:11.779Z,98389.19
2022-11-18T08:33:39.575Z,98391.69
2022-11-18T08:36:08.861Z,98395.19
2022-11-18T08:38:36.820Z,98402.69
2022-11-18T08:41:07.193Z,98395.63
2022-11-18T08:43:37.988Z,98397.66
2022-11-18T08:46:05.903Z,98393.59
2022-11-18T08:48:33.569Z,98386.91
2022-11-18T08:51:02.111Z,98393.97
2022-11-18T08:53:29.931Z,98385.97
2022-11-18T08:55:58.582Z,98390.84
2022-11-18T08:58:26.643Z,98395.28
2022-11-18T09:00:56.333Z,98395.72
2022-11-18T09:03:24.372Z,98400.66
2022-11-18T09:05:52.034Z,98403.03
2022-11-18T09:08:19.958Z,98398.94
2022-11-18T09:10:47.666Z,98397.13
2022-11-18T09:16:05.899Z,98404.94
2022-11-18T09:18:34.267Z,98404.53
2022-11-18T09:21:04.022Z,98404.13
2022-11-18T09:23:32.632Z,98413.72
2022-11-18T09:26:00.571Z,98406.94
2022-11-18T09:28:28.790Z,98420.06
2022-11-18T09:30:56.508Z,98426.06
2022-11-18T09:33:26.173Z,98423.63
2022-11-18T09:35:53.855Z,98435.22
2022-11-18T09:38:21.573Z,98440.34
2022-11-18T09:40:58.536Z,98442.41
2022-11-18T09:43:34.720Z,98428.56
2022-11-18T09:46:09.339Z,98439.34
2022-11-18T09:48:56.451Z,98446.91
2022-11-18T09:51:28.988Z,98447.75
2022-11-18T09:53:56.662Z,98457.34
2022-11-18T09:56:24.456Z,98453.72
2022-11-18T09:58:52.200Z,98460.19
2022-11-18T10:01:22.117Z,98455.13
2022-11-18T10:03:51.749Z,98464.03
2022-11-18T10:06:25.061Z,98459.19
2022-11-18T10:09:06.574Z,98467.94
2022-11-18T10:11:41.741Z,98477.09
2022-11-18T10:14:28.267Z,98473.47
2022-11-18T10:17:02.452Z,98484.88
2022-11-18T10:19:35.641Z,98483.25
2022-11-18T10:22:23.778Z,98486.88
2022-11-18T10:24:53.562Z,98487.75
2022-11-18T10:27:21.715Z,98496.88
2022-11-18T10:29:54.943Z,98494.69
2022-11-18T10:32:22.875Z,98488.66
2022-11-18T10:34:53.847Z,98496.81
2022-11-18T10:37:52.572Z,98496.81
2022-11-18T10:40:26.633Z,98496.00
2022-11-18T10:42:54.885Z,98499.25
2022-11-18T10:45:26.858Z,98502.25
2022-11-18T10:48:04.270Z,98502.47
2022-11-18T10:50:35.823Z,98500.03
2022-11-18T10:53:04.662Z,98506.94
2022-11-18T10:55:32.390Z,98499.84
2022-11-18T10:58:04.093Z,98496.97
2022-11-18T11:00:42.403Z,98494.13
2022-11-18T11:03:28.965Z,98491.72
2022-11-18T11:06:22.675Z,98488.53
2022-11-18T11:08:52.194Z,98485.03
2022-11-18T11:11:28.673Z,98486.31
2022-11-18T11:14:05.234Z,98490.66
2022-11-18T11:16:37.271Z,98490.97
2022-11-18T11:19:06.784Z,98494.16
2022-11-18T11:21:35.972Z,98497.19
2022-11-18T11:24:10.676Z,98490.66
2022-11-18T11:29:53.063Z,98500.06
2022-11-18T11:32:31.352Z,98502.28
2022-11-18T11:35:08.148Z,98502.72
2022-11-18T11:37:53.584Z,98495.59
2022-11-18T11:40:29.318Z,98497.78
2022-11-18T11:43:08.695Z,98503.53
2022-11-18T11:45:44.228Z,98509.13
2022-11-18T11:48:27.117Z,98498.81
2022-11-18T11:51:04.356Z,98504.22
2022-11-18T11:53:54.811Z,98517.31
2022-11-18T11:56:31.386Z,98514.00
2022-11-18T11:59:09.713Z,98511.16
2022-11-18T12:01:47.322Z,98518.09
2022-11-18T12:04:31.162Z,98519.22
2022-11-18T12:07:00.231Z,98521.25
2022-11-18T12:09:43.277Z,98516.34
2022-11-18T12:12:38.378Z,98511.84
2022-11-18T12:15:17.703Z,98510.81
2022-11-18T12:17:54.112Z,98512.81
2022-11-18T12:20:37.999Z,98519.56
2022-11-18T12:23:17.467Z,98522.41
2022-11-18T12:26:02.880Z,98524.47
2022-11-18T12:28:33.525Z,98531.16
2022-11-18T12:31:34.237Z,98521.44
2022-11-18T12:34:06.515Z,98524.50
2022-11-18T12:36:36.220Z,98520.41
2022-11-18T12:39:47.507Z,98514.78
2022-11-18T12:43:01.895Z,98515.69
2022-11-18T12:45:50.678Z,98524.19
2022-11-18T12:48:39.788Z,98527.50
2022-11-18T12:51:40.884Z,98520.47
2022-11-18T12:54:32.231Z,98530.38
2022-11-18T12:57:02.603Z,98525.69
2022-11-18T12:59:37.474Z,98523.69
2022-11-18T13:02:21.123Z,98519.94
2022-11-18T13:05:08.341Z,98529.50
2022-11-18T13:08:00.118Z,98532.03
2022-11-18T13:10:31.409Z,98532.56
2022-11-18T13:12:59.813Z,98530.03
2022-11-18T13:15:46.371Z,98526.84
2022-11-18T13:18:18.357Z,98539.97
2022-11-18T13:20:57.547Z,98529.00
2022-11-18T13:23:47.088Z,98529.56
2022-11-18T13:26:20.688Z,98535.53
2022-11-18T13:29:03.984Z,98527.38
2022-11-18T13:31:43.243Z,98524.28
2022-11-18T13:34:18.709Z,98524.41
2022-11-18T13:36:47.985Z,98530.69
2022-11-18T13:39:22.137Z,98531.59
2022-11-18T13:42:00.740Z,98531.59
2022-11-18T13:44:30.443Z,98529.50
2022-11-18T13:47:05.747Z,98531.22
2022-11-18T13:49:58.994Z,98530.78
2022-11-18T13:52:31.912Z,98533.75
2022-11-18T13:55:01.362Z,98533.16
2022-11-18T13:57:31.047Z,98538.47
2022-11-18T14:00:03.810Z,98544.59
2022-11-18T14:02:33.014Z,98547.31
2022-11-18T14:05:02.990Z,98546.44
2022-11-18T14:07:33.157Z,98548.84
2022-11-18T14:10:02.418Z,98549.22
2022-11-18T14:12:32.482Z,98552.94
2022-11-18T14:15:20.416Z,98563.69
2022-11-18T14:17:55.801Z,98566.97
2022-11-18T14:20:24.848Z,98566.56
2022-11-18T14:22:56.931Z,98562.59
2022-11-18T14:25:29.111Z,98567.13
2022-11-18T14:27:57.932Z,98567.09
2022-11-18T14:30:34.592Z,98562.03
2022-11-18T14:33:24.742Z,98566.31
2022-11-18T14:35:56.273Z,98575.47
2022-11-18T14:38:47.600Z,98581.81
2022-11-18T14:41:44.398Z,98576.69
2022-11-18T14:44:14.285Z,98578.53
2022-11-18T14:46:44.406Z,98571.81
2022-11-18T14:49:17.271Z,98575.47
2022-11-18T14:51:45.243Z,98575.03
2022-11-18T14:54:15.621Z,98578.31
2022-11-18T14:56:45.889Z,98578.47
2022-11-18T14:59:14.303Z,98583.38
2022-11-18T15:01:42.694Z,98576.88
2022-11-18T15:04:10.887Z,98581.97
2022-11-18T15:06:40.479Z,98583.19
2022-11-18T15:09:08.840Z,98579.13
2022-11-18T15:11:36.779Z,98581.16
2022-11-18T15:14:05.083Z,98584.56
2022-11-18T15:16:34.484Z,98581.09
2022-11-18T15:19:04.306Z,98588.03
2022-11-18T15:21:32.387Z,98600.28
2022-11-18T15:24:01.729Z,98600.66
2022-11-18T15:26:33.459Z,98604.06
2022-11-18T15:29:01.374Z,98614.19
2022-11-18T15:31:29.113Z,98614.81
2022-11-18T15:33:59.791Z,98610.91
2022-11-18T15:36:29.853Z,98625.28
2022-11-18T15:38:57.474Z,98619.97
2022-11-18T15:41:28.350Z,98623.03
2022-11-18T15:43:57.468Z,98628.09
2022-11-18T15:46:27.547Z,98632.72
2022-11-18T15:48:57.016Z,98629.88
2022-11-18T15:51:26.086Z,98637.38
2022-11-18T15:53:54.277Z,98634.22
2022-11-18T15:56:29.124Z,98631.84
2022-11-18T15:58:58.263Z,98637.38
2022-11-18T16:01:27.458Z,98648.03
2022-11-18T16:03:55.161Z,98640.38
2022-11-18T16:06:23.374Z,98645.38
2022-11-18T16:08:55.876Z,98643.59
2022-11-18T16:11:46.510Z,98649.41
2022-11-18T16:14:15.093Z,98649.25
2022-11-18T16:16:44.856Z,98654.75
2022-11-18T16:19:14.761Z,98665.38
2022-11-18T16:21:44.439Z,98656.56
2022-11-18T16:24:14.884Z,98656.97
2022-11-18T16:26:43.857Z,98656.00
2022-11-18T16:29:12.221Z,98668.06
2022-11-18T16:31:43.476Z,98668.66
2022-11-18T16:34:12.709Z,98669.00
2022-11-18T16:36:42.524Z,98683.00
2022-11-18T16:39:12.406Z,98680.56
2022-11-18T16:41:41.435Z,98679.31
2022-11-18T16:44:12.086Z,98673.97
2022-11-18T16:46:41.417Z,98683.88
2022-11-18T16:49:14.001Z,98679.78
2022-11-18T16:51:43.143Z,98683.06
2022-11-18T16:54:17.282Z,98681.41
2022-11-18T16:56:45.482Z,98682.34
2022-11-18T16:59:16.665Z,98681.94
2022-11-18T17:01:45.149Z,98684.69
2022-11-18T17:04:12.841Z,98686.28
2022-11-18T17:06:41.452Z,98693.94
2022-11-18T17:09:13.443Z,98689.50
2022-11-18T17:11:41.351Z,98687.69
2022-11-18T17:14:09.182Z,98692.38
2022-11-18T17:16:38.164Z,98695.31
2022-11-18T17:19:10.348Z,98690.06
2022-11-18T17:21:39.446Z,98691.91
2022-11-18T17:24:08.169Z,98683.88
2022-11-18T17:26:36.220Z,98695.00
2022-11-18T17:29:04.723Z,98692.34
2022-11-18T17:31:32.552Z,98691.97
2022-11-18T17:34:01.825Z,98697.63
2022-11-18T17:36:29.850Z,98697.13
2022-11-18T17:39:00.476Z,98698.19
2022-11-18T17:41:47.770Z,98703.06
2022-11-18T17:44:17.837Z,98697.28
2022-11-18T17:46:47.101Z,98704.81
2022-11-18T17:49:18.769Z,98696.16
2022-11-18T17:51:46.991Z,98697.81
2022-11-18T17:54:15.263Z,98702.84
2022-11-18T17:56:43.212Z,98704.16
2022-11-18T17:59:10.928Z,98698.59
2022-11-18T18:01:38.627Z,98705.47
2022-11-18T18:04:06.399Z,98703.56
2022-11-18T18:06:35.422Z,98700.41
2022-11-18T18:09:03.580Z,98706.75
2022-11-18T18:11:31.201Z,98705.88
2022-11-18T18:14:13.150Z,98702.81
2022-11-18T18:16:43.304Z,98705.88
2022-11-18T18:19:12.936Z,98709.44
2022-11-18T18:21:42.324Z,98713.81
2022-11-18T18:24:11.001Z,98717.53
2022-11-18T18:26:39.407Z,98715.19
2022-11-18T18:29:09.210Z,98716.47
2022-11-18T18:31:38.236Z,98719.00
2022-11-18T18:34:06.155Z,98719.50
2022-11-18T18:36:33.828Z,98722.47
2022-11-18T18:39:02.924Z,98717.84
2022-11-18T18:41:32.270Z,98716.03
2022-11-18T18:44:00.119Z,98723.69
2022-11-18T18:46:32.063Z,98717.59
2022-11-18T18:49:03.321Z,98723.69
2022-11-18T18:51:34.381Z,98724.69
2022-11-18T18:54:03.980Z,98730.13
2022-11-18T18:56:31.792Z,98730.88
2022-11-18T18:59:00.240Z,98727.66
2022-11-18T19:01:28.575Z,98728.31
2022-11-18T19:03:57.697Z,98729.13
2022-11-18T19:06:50.554Z,98729.41
2022-11-18T19:09:16.981Z,98740.88
2022-11-18T19:12:03.347Z,98746.22
2022-11-18T19:14:31.540Z,98738.03
2022-11-18T19:17:02.478Z,98726.28
2022-11-18T19:19:51.854Z,98736.31
2022-11-18T19:22:20.152Z,98734.47
2022-11-18T19:24:50.774Z,98741.91
2022-11-18T19:27:19.684Z,98750.25
2022-11-18T19:29:48.095Z,98741.13
2022-11-18T19:32:16.340Z,98748.59
2022-11-18T19:34:44.371Z,98747.13
2022-11-18T19:37:12.490Z,98746.78
2022-11-18T19:39:40.362Z,98741.84
2022-11-18T19:42:10.906Z,98740.97
2022-11-18T19:44:39.247Z,98740.22
2022-11-18T19:47:07.273Z,98749.00
2022-11-18T19:49:35.147Z,98749.53
2022-11-18T19:52:03.351Z,98755.19
2022-11-18T19:54:31.310Z,98761.63
2022-11-18T19:56:59.746Z,98757.34
2022-11-18T19:59:28.865Z,98758.53
2022-11-18T20:01:56.869Z,98747.19
2022-11-18T20:04:25.039Z,98752.81
2022-11-18T20:06:52.906Z,98752.41
2022-11-18T20:09:21.026Z,98750.97
2022-11-18T20:11:49.643Z,98752.53
2022-11-18T20:14:17.439Z,98755.97
2022-11-18T20:16:46.808Z,98757.19
2022-11-18T20:19:17.084Z,98752.91
2022-11-18T20:21:44.844Z,98754.88
2022-11-18T20:24:16.811Z,98753.91
2022-11-18T20:26:45.509Z,98760.25
2022-11-18T20:29:13.463Z,98767.47
2022-11-18T20:31:41.701Z,98771.06
2022-11-18T20:34:14.236Z,98773.28
2022-11-18T20:36:42.270Z,98784.84
2022-11-18T20:39:14.439Z,98783.19
2022-11-18T20:41:42.175Z,98784.75
2022-11-18T20:44:09.792Z,98794.47
2022-11-18T20:46:37.498Z,98793.47
2022-11-18T20:49:05.220Z,98796.03
2022-11-18T20:51:34.516Z,98795.03
2022-11-18T20:54:07.576Z,98794.78
2022-11-18T20:56:35.271Z,98794.47
2022-11-18T20:59:02.980Z,98788.81
2022-11-18T21:01:33.022Z,98787.72
2022-11-18T21:04:03.305Z,98786.66
2022-11-18T21:06:32.697Z,98791.84
2022-11-18T21:09:03.204Z,98789.94
2022-11-18T21:11:31.707Z,98789.97
2022-11-18T21:14:22.997Z,98802.78
2022-11-18T21:16:52.530Z,98804.47
2022-11-18T21:19:20.631Z,98809.06
2022-11-18T21:21:51.866Z,98817.81
2022-11-18T21:24:22.866Z,98818.97
2022-11-18T21:26:54.288Z,98816.91
2022-11-18T21:29:22.688Z,98815.88
2022-11-18T21:31:50.415Z,98824.56
2022-11-18T21:34:19.097Z,98819.47
2022-11-18T21:36:51.718Z,98824.50
2022-11-18T21:39:23.947Z,98816.59
2022-11-18T21:41:55.697Z,98825.72
2022-11-18T21:44:24.220Z,98825.59
2022-11-18T21:46:51.795Z,98830.88
2022-11-18T21:49:19.664Z,98829.81
2022-11-18T21:51:47.364Z,98812.41
2022-11-18T21:54:18.022Z,98816.94
2022-11-18T21:56:47.030Z,98814.69
2022-11-18T21:59:14.698Z,98819.97
2022-11-18T22:01:42.333Z,98823.50
2022-11-18T22:04:30.011Z,98824.25
2022-11-18T22:06:57.632Z,98826.69
2022-11-18T22:09:25.224Z,98819.69
2022-11-18T22:11:54.525Z,98823.88
2022-11-18T22:14:22.165Z,98820.16
2022-11-18T22:16:51.300Z,98823.34
2022-11-18T22:19:19.010Z,98828.44
2022-11-18T22:21:47.119Z,98827.34
2022-11-18T22:24:14.704Z,98830.97
2022-11-18T22:26:42.272Z,98826.78
2022-11-18T22:29:11.214Z,98834.78
2022-11-18T22:31:39.098Z,98820.63
2022-11-18T22:34:06.726Z,98830.44
2022-11-18T22:36:34.369Z,98822.78
2022-11-18T22:39:02.282Z,98821.44
2022-11-18T22:41:48.197Z,98827.97
2022-11-18T22:44:17.888Z,98831.25
2022-11-18T22:46:46.761Z,98825.00
2022-11-18T22:49:14.702Z,98832.97
2022-11-18T22:51:42.475Z,98834.28
2022-11-18T22:54:37.033Z,98833.06
2022-11-18T22:56:58.242Z,98833.09
2022-11-18T22:59:27.176Z,98831.78
2022-11-18T23:01:55.047Z,98843.16
2022-11-18T23:04:22.686Z,98833.50
2022-11-18T23:06:50.616Z,98832.41
2022-11-18T23:09:18.577Z,98834.88
2022-11-18T23:12:04.285Z,98835.16
2022-11-18T23:14:33.314Z,98837.94
2022-11-18T23:17:01.419Z,98837.94
2022-11-18T23:19:29.117Z,98838.63
2022-11-18T23:21:57.294Z,98834.53
2022-11-18T23:24:25.344Z,98829.97
2022-11-18T23:26:52.956Z,98831.25
2022-11-18T23:29:21.487Z,98824.97
2022-11-18T23:31:50.912Z,98828.09
2022-11-18T23:34:19.537Z,98831.78
2022-11-18T23:36:47.654Z,98832.44
2022-11-18T23:39:15.318Z,98831.47
2022-11-18T23:41:42.964Z,98832.38
2022-11-18T23:44:10.575Z,98838.97
2022-11-18T23:46:38.363Z,98839.34
2022-11-18T23:49:10.677Z,98835.53
2022-11-18T23:51:38.373Z,98835.47
2022-11-18T23:54:06.111Z,98836.34
2022-11-18T23:56:37.729Z,98833.69
2022-11-18T23:59:05.579Z,98827.31
